createdAt,value
2022-08-20T00:01:36.549Z,21.14
2022-08-20T00:04:24.511Z,21.10
2022-08-20T00:07:12.684Z,21.04
2022-08-20T00:10:00.872Z,20.95
2022-08-20T00:12:49.721Z,20.85
2022-08-20T00:15:38.335Z,20.83
2022-08-20T00:18:25.992Z,20.85
2022-08-20T00:21:19.163Z,20.89
2022-08-20T00:24:05.808Z,20.88
2022-08-20T00:26:53.567Z,20.90
2022-08-20T00:29:40.849Z,20.91
2022-08-20T00:32:27.952Z,20.89
2022-08-20T00:35:18.089Z,20.86
2022-08-20T00:38:05.209Z,20.85
2022-08-20T00:40:55.584Z,20.87
2022-08-20T00:43:55.011Z,20.91
2022-08-20T00:46:45.425Z,20.93
2022-08-20T00:49:34.103Z,20.87
2022-08-20T00:52:22.263Z,20.77
2022-08-20T00:55:11.167Z,20.76
2022-08-20T00:58:03.543Z,20.72
2022-08-20T01:00:51.391Z,20.73
2022-08-20T01:03:38.728Z,20.74
2022-08-20T01:06:27.200Z,20.71
2022-08-20T01:09:15.001Z,20.67
2022-08-20T01:12:03.503Z,20.60
2022-08-20T01:14:51.063Z,20.53
2022-08-20T01:17:41.872Z,20.49
2022-08-20T01:20:35.231Z,20.45
2022-08-20T01:23:30.724Z,20.41
2022-08-20T01:29:41.480Z,20.43
2022-08-20T01:32:29.243Z,20.38
2022-08-20T01:35:21.679Z,20.30
2022-08-20T01:38:09.831Z,20.25
2022-08-20T01:41:17.614Z,20.19
2022-08-20T01:44:06.441Z,20.10
2022-08-20T01:46:57.493Z,20.04
2022-08-20T01:49:49.920Z,20.04
2022-08-20T01:52:48.351Z,20.13
2022-08-20T01:55:35.913Z,20.19
2022-08-20T01:58:24.083Z,20.20
2022-08-20T02:01:20.684Z,20.19
2022-08-20T02:04:15.153Z,20.14
2022-08-20T02:07:02.136Z,20.19
2022-08-20T02:09:50.375Z,20.15
2022-08-20T02:12:40.071Z,20.08
2022-08-20T02:15:35.238Z,20.06
2022-08-20T02:18:17.065Z,20.03
2022-08-20T02:21:05.562Z,19.95
2022-08-20T02:23:53.015Z,20.01
2022-08-20T02:26:41.224Z,20.08
2022-08-20T02:29:28.935Z,20.11
2022-08-20T02:32:26.241Z,20.08
2022-08-20T02:35:10.640Z,20.02
2022-08-20T02:37:58.200Z,20.00
2022-08-20T02:40:46.802Z,20.02
2022-08-20T02:43:34.321Z,20.00
2022-08-20T02:46:21.661Z,19.90
2022-08-20T02:49:08.720Z,19.81
2022-08-20T02:51:56.055Z,19.76
2022-08-20T02:54:43.320Z,19.76
2022-08-20T02:57:31.008Z,19.76
2022-08-20T03:00:20.896Z,19.73
2022-08-20T03:03:11.015Z,19.66
2022-08-20T03:05:59.633Z,19.67
2022-08-20T03:08:47.049Z,19.67
2022-08-20T03:11:35.199Z,19.65
2022-08-20T03:14:23.312Z,19.57
2022-08-20T03:17:11.053Z,19.56
2022-08-20T03:19:58.449Z,19.60
2022-08-20T03:22:46.311Z,19.69
2022-08-20T03:25:34.015Z,19.76
2022-08-20T03:28:21.695Z,19.77
2022-08-20T03:31:09.168Z,19.71
2022-08-20T03:33:57.042Z,19.65
2022-08-20T03:36:44.402Z,19.65
2022-08-20T03:39:31.441Z,19.70
2022-08-20T03:42:18.943Z,19.72
2022-08-20T03:45:08.031Z,19.76
2022-08-20T03:47:57.195Z,19.85
2022-08-20T03:50:46.448Z,19.93
2022-08-20T03:53:33.544Z,19.98
2022-08-20T03:59:09.792Z,19.97
2022-08-20T04:01:57.346Z,19.93
2022-08-20T04:04:45.064Z,19.83
2022-08-20T04:07:32.248Z,19.79
2022-08-20T04:10:19.976Z,19.77
2022-08-20T04:13:08.496Z,19.78
2022-08-20T04:15:56.386Z,19.77
2022-08-20T04:18:57.235Z,19.77
2022-08-20T04:21:35.303Z,19.83
2022-08-20T04:24:31.953Z,19.90
2022-08-20T04:27:14.464Z,20.00
2022-08-20T04:30:04.304Z,20.02
2022-08-20T04:32:52.096Z,20.01
2022-08-20T04:35:39.776Z,20.06
2022-08-20T04:38:27.361Z,20.17
2022-08-20T04:41:22.410Z,20.29
2022-08-20T04:44:05.129Z,20.46
2022-08-20T04:46:52.463Z,20.60
2022-08-20T04:49:40.007Z,20.77
2022-08-20T04:52:28.698Z,20.95
2022-08-20T04:55:17.361Z,21.16
2022-08-20T04:58:09.712Z,21.32
2022-08-20T05:01:01.171Z,21.43
2022-08-20T05:03:48.392Z,21.59
2022-08-20T05:06:36.024Z,21.75
2022-08-20T05:09:23.848Z,21.90
2022-08-20T05:12:12.304Z,22.01
2022-08-20T05:15:00.351Z,22.08
2022-08-20T05:17:47.961Z,22.10
2022-08-20T05:20:39.609Z,22.15
2022-08-20T05:23:26.608Z,22.22
2022-08-20T05:26:16.174Z,22.29
2022-08-20T05:29:05.679Z,22.36
2022-08-20T05:31:52.849Z,22.36
2022-08-20T05:34:40.496Z,22.44
2022-08-20T05:37:27.912Z,22.48
2022-08-20T05:40:17.152Z,22.51
2022-08-20T05:43:05.146Z,22.52
2022-08-20T05:45:56.533Z,22.54
2022-08-20T05:48:41.665Z,22.57
2022-08-20T05:51:30.124Z,22.66
2022-08-20T05:54:17.481Z,22.78
2022-08-20T05:57:06.320Z,22.89
2022-08-20T05:59:53.760Z,23.02
2022-08-20T06:02:59.533Z,23.18
2022-08-20T06:05:47.000Z,23.38
2022-08-20T06:08:34.672Z,23.62
2022-08-20T06:11:23.074Z,23.82
2022-08-20T06:14:10.544Z,24.04
2022-08-20T06:17:09.600Z,24.29
2022-08-20T06:19:58.712Z,24.56
2022-08-20T06:22:46.209Z,24.88
2022-08-20T06:25:38.001Z,25.18
2022-08-20T06:28:25.153Z,25.42
2022-08-20T06:31:12.770Z,25.63
2022-08-20T06:34:00.176Z,25.73
2022-08-20T06:36:47.759Z,25.75
2022-08-20T06:39:35.473Z,25.81
2022-08-20T06:42:23.426Z,25.90
2022-08-20T06:45:11.968Z,26.00
2022-08-20T06:48:01.476Z,26.12
2022-08-20T06:50:49.096Z,26.22
2022-08-20T06:53:37.295Z,26.23
2022-08-20T06:56:24.632Z,26.28
2022-08-20T06:59:12.072Z,26.35
2022-08-20T07:01:59.079Z,26.41
2022-08-20T07:04:46.992Z,26.49
2022-08-20T07:07:34.681Z,26.55
2022-08-20T07:10:23.896Z,26.68
2022-08-20T07:13:13.424Z,26.82
2022-08-20T07:16:00.912Z,26.93
2022-08-20T07:18:48.119Z,27.09
2022-08-20T07:21:35.577Z,27.21
2022-08-20T07:24:23.168Z,27.36
2022-08-20T07:27:10.816Z,27.48
2022-08-20T07:30:16.081Z,27.62
2022-08-20T07:33:05.024Z,27.70
2022-08-20T07:35:54.281Z,27.82
2022-08-20T07:38:41.767Z,27.94
2022-08-20T07:41:29.633Z,28.11
2022-08-20T07:44:17.536Z,28.27
2022-08-20T07:47:05.600Z,28.32
2022-08-20T07:49:52.936Z,28.35
2022-08-20T07:52:40.360Z,28.44
2022-08-20T07:55:28.017Z,28.55
2022-08-20T07:58:18.513Z,28.65
2022-08-20T08:01:07.347Z,28.71
2022-08-20T08:03:55.161Z,28.83
2022-08-20T08:06:43.792Z,29.06
2022-08-20T08:09:31.248Z,29.06
2022-08-20T08:12:18.599Z,29.22
2022-08-20T08:15:08.657Z,29.50
2022-08-20T08:17:55.849Z,29.50
2022-08-20T08:20:47.047Z,29.54
2022-08-20T08:23:35.072Z,29.61
2022-08-20T08:26:22.624Z,29.69
2022-08-20T08:29:10.276Z,29.65
2022-08-20T08:31:57.849Z,29.68
2022-08-20T08:34:47.848Z,29.59
2022-08-20T08:37:37.665Z,29.55
2022-08-20T08:40:25.551Z,29.49
2022-08-20T08:43:14.551Z,29.61
2022-08-20T08:46:09.427Z,29.76
2022-08-20T08:48:59.002Z,29.81
2022-08-20T08:51:49.008Z,29.86
2022-08-20T08:54:35.969Z,29.97
2022-08-20T08:57:24.215Z,29.79
2022-08-20T09:00:17.467Z,29.80
2022-08-20T09:03:13.832Z,29.93
2022-08-20T09:06:02.448Z,30.02
2022-08-20T09:08:52.681Z,30.14
2022-08-20T09:11:53.308Z,30.31
2022-08-20T09:14:41.317Z,30.43
2022-08-20T09:17:28.657Z,30.58
2022-08-20T09:20:15.929Z,30.63
2022-08-20T09:23:05.117Z,30.71
2022-08-20T09:25:52.769Z,30.72
2022-08-20T09:28:39.745Z,30.73
2022-08-20T09:31:27.832Z,30.69
2022-08-20T09:34:15.898Z,30.82
2022-08-20T09:37:03.386Z,30.97
2022-08-20T09:39:51.404Z,31.07
2022-08-20T09:42:41.607Z,31.21
2022-08-20T09:45:29.696Z,31.37
2022-08-20T09:48:17.160Z,31.51
2022-08-20T09:51:04.800Z,31.53
2022-08-20T09:53:53.049Z,31.36
2022-08-20T09:56:40.498Z,31.21
2022-08-20T09:59:29.000Z,31.08
2022-08-20T10:02:16.695Z,31.07
2022-08-20T10:05:03.993Z,31.12
2022-08-20T10:07:51.937Z,31.23
2022-08-20T10:10:39.448Z,31.22
2022-08-20T10:13:26.569Z,31.28
2022-08-20T10:16:14.201Z,31.35
2022-08-20T10:19:02.081Z,31.55
2022-08-20T10:21:54.427Z,31.60
2022-08-20T10:24:41.616Z,31.71
2022-08-20T10:27:28.962Z,31.71
2022-08-20T10:30:16.587Z,31.84
2022-08-20T10:33:04.280Z,31.84
2022-08-20T10:35:51.488Z,31.62
2022-08-20T10:38:40.571Z,31.60
2022-08-20T10:41:28.536Z,31.85
2022-08-20T10:44:17.752Z,32.17
2022-08-20T10:47:20.512Z,32.03
2022-08-20T10:50:10.920Z,31.85
2022-08-20T10:52:58.650Z,31.78
2022-08-20T10:55:46.344Z,31.96
2022-08-20T10:58:37.744Z,32.14
2022-08-20T11:01:32.769Z,32.35
2022-08-20T11:04:12.125Z,32.19
2022-08-20T11:06:59.625Z,32.10
2022-08-20T11:09:48.352Z,31.97
2022-08-20T11:12:35.809Z,31.89
2022-08-20T11:15:22.991Z,31.74
2022-08-20T11:18:13.197Z,31.70
2022-08-20T11:21:01.598Z,31.90
2022-08-20T11:23:48.569Z,32.22
2022-08-20T11:26:36.058Z,32.43
2022-08-20T11:29:24.922Z,32.55
2022-08-20T11:32:13.251Z,32.21
2022-08-20T11:35:00.584Z,32.25
2022-08-20T11:37:47.946Z,32.47
2022-08-20T11:40:35.184Z,32.79
2022-08-20T11:43:22.891Z,33.01
2022-08-20T11:46:10.419Z,33.08
2022-08-20T11:48:57.865Z,32.98
2022-08-20T11:51:49.637Z,32.96
2022-08-20T11:54:35.432Z,33.04
2022-08-20T11:57:26.130Z,33.06
2022-08-20T12:00:16.831Z,33.24
2022-08-20T12:03:06.174Z,33.36
2022-08-20T12:05:56.928Z,33.51
2022-08-20T12:08:44.320Z,33.56
2022-08-20T12:11:32.160Z,33.60
2022-08-20T12:14:19.472Z,33.52
2022-08-20T12:17:20.066Z,33.56
2022-08-20T12:20:10.280Z,33.65
2022-08-20T12:22:59.144Z,33.79
2022-08-20T12:25:46.508Z,33.88
2022-08-20T12:28:34.281Z,34.00
2022-08-20T12:31:21.712Z,33.80
2022-08-20T12:34:08.625Z,33.66
2022-08-20T12:37:05.560Z,33.83
2022-08-20T12:39:56.027Z,33.99
2022-08-20T12:42:43.769Z,34.19
2022-08-20T12:45:31.848Z,34.49
2022-08-20T12:48:20.976Z,34.89
2022-08-20T12:51:08.240Z,35.15
2022-08-20T12:53:55.224Z,35.11
2022-08-20T12:56:42.848Z,35.17
2022-08-20T12:59:30.201Z,35.25
2022-08-20T13:02:19.408Z,35.28
2022-08-20T13:05:09.554Z,35.10
2022-08-20T13:07:57.320Z,35.14
2022-08-20T13:10:46.447Z,34.88
2022-08-20T13:13:33.922Z,34.63
2022-08-20T13:16:21.200Z,34.25
2022-08-20T13:19:08.706Z,33.78
2022-08-20T13:21:56.372Z,34.28
2022-08-20T13:24:44.385Z,34.82
2022-08-20T13:27:31.794Z,34.78
2022-08-20T13:30:20.578Z,34.25
2022-08-20T13:33:08.105Z,33.81
2022-08-20T13:35:56.857Z,34.63
2022-08-20T13:38:44.056Z,34.91
2022-08-20T13:41:31.689Z,34.48
2022-08-20T13:44:19.305Z,33.90
2022-08-20T13:47:18.469Z,33.48
2022-08-20T13:50:10.067Z,33.43
2022-08-20T13:52:58.804Z,34.47
2022-08-20T13:55:48.060Z,35.92
2022-08-20T13:58:35.810Z,36.43
2022-08-20T14:01:23.392Z,36.38
2022-08-20T14:04:11.057Z,36.18
2022-08-20T14:06:58.417Z,36.19
2022-08-20T14:09:49.129Z,35.94
2022-08-20T14:12:36.384Z,35.67
2022-08-20T14:15:24.032Z,35.40
2022-08-20T14:18:11.401Z,35.18
2022-08-20T14:20:58.873Z,34.98
2022-08-20T14:23:46.123Z,34.77
2022-08-20T14:26:33.605Z,34.62
2022-08-20T14:29:22.464Z,34.64
2022-08-20T14:32:10.914Z,34.76
2022-08-20T14:34:59.406Z,34.67
2022-08-20T14:37:56.793Z,34.38
2022-08-20T14:40:44.274Z,34.04
2022-08-20T14:43:31.699Z,33.99
2022-08-20T14:46:19.217Z,34.02
2022-08-20T14:49:06.792Z,33.88
2022-08-20T14:51:53.985Z,33.78
2022-08-20T14:54:41.612Z,33.67
2022-08-20T14:57:29.153Z,33.51
2022-08-20T15:00:19.764Z,33.24
2022-08-20T15:03:07.545Z,33.01
2022-08-20T15:05:55.113Z,32.82
2022-08-20T15:08:42.769Z,32.63
2022-08-20T15:11:34.090Z,32.51
2022-08-20T15:14:18.929Z,32.38
2022-08-20T15:17:07.300Z,32.45
2022-08-20T15:19:54.848Z,32.48
2022-08-20T15:22:43.208Z,32.51
2022-08-20T15:25:36.894Z,32.44
2022-08-20T15:28:23.312Z,32.33
2022-08-20T15:31:11.825Z,32.21
2022-08-20T15:33:59.548Z,31.98
2022-08-20T15:36:47.568Z,31.72
2022-08-20T15:39:36.425Z,31.52
2022-08-20T15:42:24.602Z,31.30
2022-08-20T15:45:12.680Z,31.03
2022-08-20T15:48:15.800Z,30.85
2022-08-20T15:51:12.392Z,30.64
2022-08-20T15:54:05.941Z,30.43
2022-08-20T15:57:05.921Z,30.26
2022-08-20T16:00:09.833Z,30.14
2022-08-20T16:03:22.796Z,30.09
2022-08-20T16:06:17.122Z,30.00
2022-08-20T16:09:41.424Z,29.90
2022-08-20T16:12:34.289Z,29.79
2022-08-20T16:15:32.968Z,29.67
2022-08-20T16:18:23.519Z,29.57
2022-08-20T16:21:13.952Z,29.48
2022-08-20T16:24:02.201Z,29.43
2022-08-20T16:27:07.184Z,29.33
2022-08-20T16:30:09.911Z,29.21
2022-08-20T16:33:02.984Z,29.06
2022-08-20T16:39:28.595Z,28.83
2022-08-20T16:42:17.873Z,28.73
2022-08-20T16:45:08.330Z,28.64
2022-08-20T16:50:47.527Z,28.45
2022-08-20T16:53:35.545Z,28.22
2022-08-20T16:56:37.808Z,27.98
2022-08-20T16:59:27.086Z,27.74
2022-08-20T17:02:16.057Z,27.57
2022-08-20T17:05:04.879Z,27.39
2022-08-20T17:07:57.906Z,27.30
2022-08-20T17:11:04.075Z,27.26
2022-08-20T17:13:51.559Z,27.22
2022-08-20T17:16:42.480Z,27.18
2022-08-20T17:19:32.024Z,27.10
2022-08-20T17:22:21.287Z,26.98
2022-08-20T17:25:18.920Z,26.79
2022-08-20T17:28:17.247Z,26.59
2022-08-20T17:31:04.595Z,26.37
2022-08-20T17:33:51.992Z,26.25
2022-08-20T17:36:42.399Z,26.14
2022-08-20T17:39:32.072Z,26.04
2022-08-20T17:42:22.481Z,25.92
2022-08-20T17:45:14.713Z,25.75
2022-08-20T17:48:02.543Z,25.58
2022-08-20T17:50:50.327Z,25.48
2022-08-20T17:53:39.520Z,25.41
2022-08-20T17:56:32.270Z,25.39
2022-08-20T17:59:59.720Z,25.36
2022-08-20T18:02:18.493Z,25.32
2022-08-20T18:05:12.277Z,25.34
2022-08-20T18:08:14.095Z,25.32
2022-08-20T18:11:24.127Z,25.29
2022-08-20T18:14:19.672Z,25.25
2022-08-20T18:17:15.702Z,25.24
2022-08-20T18:20:08.865Z,25.22
2022-08-20T18:23:03.766Z,25.17
2022-08-20T18:28:55.545Z,25.09
2022-08-20T18:31:51.600Z,25.01
2022-08-20T18:34:42.545Z,24.96
2022-08-20T18:37:31.354Z,24.91
2022-08-20T18:43:17.158Z,24.84
2022-08-20T18:46:16.431Z,24.75
2022-08-20T18:49:06.777Z,24.70
2022-08-20T18:51:54.489Z,24.63
2022-08-20T18:54:44.248Z,24.57
2022-08-20T18:57:41.149Z,24.54
2022-08-20T19:00:28.690Z,24.52
2022-08-20T19:03:31.541Z,24.48
2022-08-20T19:06:33.504Z,24.47
2022-08-20T19:09:48.480Z,24.44
2022-08-20T19:13:16.078Z,24.41
2022-08-20T19:16:11.387Z,24.36
2022-08-20T19:18:58.999Z,24.35
2022-08-20T19:21:48.453Z,24.33
2022-08-20T19:24:40.676Z,24.31
2022-08-20T19:27:27.009Z,24.30
2022-08-20T19:30:14.697Z,24.25
2022-08-20T19:33:04.612Z,24.21
2022-08-20T19:35:52.114Z,24.20
2022-08-20T19:38:52.783Z,24.18
2022-08-20T19:41:46.394Z,24.16
2022-08-20T19:44:46.796Z,24.12
2022-08-20T19:47:38.144Z,24.09
2022-08-20T19:50:43.776Z,24.07
2022-08-20T19:53:33.760Z,24.05
2022-08-20T19:56:23.983Z,24.02
2022-08-20T19:59:12.494Z,23.92
2022-08-20T20:02:03.300Z,23.87
2022-08-20T20:04:54.929Z,23.83
2022-08-20T20:07:43.543Z,23.79
2022-08-20T20:10:35.034Z,23.74
2022-08-20T20:13:24.048Z,23.68
2022-08-20T20:16:12.047Z,23.61
2022-08-20T20:19:24.855Z,23.56
2022-08-20T20:21:53.088Z,23.48
2022-08-20T20:24:46.692Z,23.36
2022-08-20T20:27:35.026Z,23.28
2022-08-20T20:30:35.770Z,23.20
2022-08-20T20:33:31.557Z,23.10
2022-08-20T20:36:21.682Z,23.08
2022-08-20T20:39:29.968Z,23.06
2022-08-20T20:42:21.832Z,23.02
2022-08-20T20:45:20.108Z,22.95
2022-08-20T20:48:22.032Z,22.90
2022-08-20T20:54:12.385Z,22.86
2022-08-20T20:57:23.924Z,22.79
2022-08-20T21:00:13.552Z,22.70
2022-08-20T21:03:04.249Z,22.60
2022-08-20T21:05:49.848Z,22.58
2022-08-20T21:08:36.921Z,22.56
2022-08-20T21:11:25.322Z,22.56
2022-08-20T21:14:13.162Z,22.53
2022-08-20T21:17:03.425Z,22.47
2022-08-20T21:19:52.264Z,22.43
2022-08-20T21:22:40.273Z,22.36
2022-08-20T21:25:29.642Z,22.32
2022-08-20T21:28:16.921Z,22.32
2022-08-20T21:31:04.712Z,22.34
2022-08-20T21:33:52.671Z,22.33
2022-08-20T21:36:40.929Z,22.29
2022-08-20T21:39:28.336Z,22.25
2022-08-20T21:42:29.392Z,22.23
2022-08-20T21:45:08.872Z,22.19
2022-08-20T21:47:56.226Z,22.15
2022-08-20T21:50:44.167Z,22.13
2022-08-20T21:53:32.135Z,22.11
2022-08-20T21:56:19.826Z,22.08
2022-08-20T21:59:09.801Z,22.03
2022-08-20T22:01:57.321Z,21.96
2022-08-20T22:04:45.005Z,21.90
2022-08-20T22:07:32.689Z,21.83
2022-08-20T22:10:19.991Z,21.76
2022-08-20T22:13:07.608Z,21.73
2022-08-20T22:15:55.455Z,21.70
2022-08-20T22:18:43.403Z,21.68
2022-08-20T22:21:33.191Z,21.63
2022-08-20T22:24:20.751Z,21.57
2022-08-20T22:27:08.276Z,21.56
2022-08-20T22:29:56.186Z,21.58
2022-08-20T22:33:01.496Z,21.57
2022-08-20T22:35:33.153Z,21.54
2022-08-20T22:38:20.830Z,21.50
2022-08-20T22:41:09.923Z,21.43
2022-08-20T22:43:57.566Z,21.40
2022-08-20T22:46:48.158Z,21.32
2022-08-20T22:49:35.454Z,21.27
2022-08-20T22:52:23.807Z,21.22
2022-08-20T22:55:13.198Z,21.21
2022-08-20T22:58:00.986Z,21.19
2022-08-20T23:00:49.566Z,21.12
2022-08-20T23:03:40.114Z,21.06
2022-08-20T23:06:27.303Z,21.04
2022-08-20T23:09:14.551Z,21.05
2022-08-20T23:12:03.566Z,21.08
2022-08-20T23:14:52.791Z,21.08
2022-08-20T23:17:40.584Z,21.07
2022-08-20T23:20:28.198Z,21.05
2022-08-20T23:23:16.599Z,20.99
2022-08-20T23:26:03.954Z,20.90
2022-08-20T23:28:51.388Z,20.82
2022-08-20T23:31:39.407Z,20.76
2022-08-20T23:34:27.703Z,20.76
2022-08-20T23:37:15.463Z,20.71
2022-08-20T23:40:03.226Z,20.66
2022-08-20T23:42:51.155Z,20.61
2022-08-20T23:45:39.928Z,20.59
2022-08-20T23:48:27.624Z,20.59
2022-08-20T23:51:15.320Z,20.60
2022-08-20T23:54:03.048Z,20.57
2022-08-20T23:56:50.502Z,20.48
2022-08-20T23:59:38.143Z,20.42
